Maywood, Indiana
Current Conditions -  °F | °C
As of 9:25 PM on Sunday 25 Jan 2015 (Local Time) from KIND Reporting Station
Light Snow Light Snow  
Wind Chill:   Ceiling: 1400
Heat Index: 22°   Visibility: 9mi
Dew Point: 20°   Wind: 21mph
Humidity: 92%   Direction: 30°NNE
Pressure: 29.79"   Gusts: NA
Location:  39.7251°N, 86.264°W
Report Text: KIND 260225Z 03018KT 9SM -SN BKN014 OVC021 M06/M07 A2979 RMK AO2 P0000 T10561067
Loading
Personal Weather Stations






























Interactive Weather Map New forecast layout! Learn more

10-Day Weather Forecast

Advertisements
Track Severe Weather on mobile